createdAt,value
2018-10-03T00:00:49.000Z,0.00
2018-10-03T00:01:48.951Z,0.00
2018-10-03T00:02:48.962Z,0.00
2018-10-03T00:03:48.928Z,0.00
2018-10-03T00:04:48.921Z,0.00
2018-10-03T00:05:48.953Z,0.00
2018-10-03T00:06:48.925Z,0.00
2018-10-03T00:07:48.922Z,0.00
2018-10-03T00:08:49.000Z,0.00
2018-10-03T00:09:48.942Z,0.00
2018-10-03T00:10:48.923Z,0.00
2018-10-03T00:11:48.898Z,0.00
2018-10-03T00:12:48.927Z,0.00
2018-10-03T00:13:48.900Z,0.00
2018-10-03T00:14:48.881Z,0.00
2018-10-03T00:15:48.871Z,0.00
2018-10-03T00:16:48.879Z,0.00
2018-10-03T00:17:48.866Z,0.00
2018-10-03T00:18:48.847Z,0.00
2018-10-03T00:19:48.873Z,0.00
2018-10-03T00:20:48.887Z,0.00
2018-10-03T00:21:48.831Z,0.00
2018-10-03T00:22:48.827Z,0.00
2018-10-03T00:23:48.832Z,0.00
2018-10-03T00:24:48.806Z,0.00
2018-10-03T00:25:48.832Z,0.00
2018-10-03T00:26:48.839Z,0.00
2018-10-03T00:27:48.816Z,0.00
2018-10-03T00:28:48.771Z,0.00
2018-10-03T00:29:48.792Z,0.00
2018-10-03T00:30:48.784Z,0.00
2018-10-03T00:31:48.789Z,0.00
2018-10-03T00:32:48.773Z,0.00
2018-10-03T00:33:48.780Z,0.00
2018-10-03T00:34:48.798Z,0.00
2018-10-03T00:35:48.756Z,0.00
2018-10-03T00:36:48.803Z,0.00
2018-10-03T00:37:48.772Z,0.00
2018-10-03T00:38:48.747Z,0.00
2018-10-03T00:39:48.719Z,0.00
2018-10-03T00:40:48.740Z,0.00
2018-10-03T00:41:48.711Z,0.00
2018-10-03T00:42:48.764Z,0.00
2018-10-03T00:43:48.719Z,0.00
2018-10-03T00:44:48.728Z,0.00
2018-10-03T00:45:48.798Z,0.00
2018-10-03T00:46:48.725Z,0.00
2018-10-03T00:47:48.700Z,0.00
2018-10-03T00:48:48.714Z,0.00
2018-10-03T00:49:48.674Z,0.00
2018-10-03T00:50:48.670Z,0.00
2018-10-03T00:51:48.759Z,0.00
2018-10-03T00:52:48.648Z,0.00
2018-10-03T00:53:48.668Z,0.00
2018-10-03T00:54:48.919Z,0.00
2018-10-03T00:55:48.673Z,0.00
2018-10-03T00:56:48.653Z,0.00
2018-10-03T00:57:48.730Z,0.00
2018-10-03T00:58:48.623Z,0.00
2018-10-03T00:59:48.645Z,0.00
2018-10-03T01:00:48.606Z,0.00
2018-10-03T01:01:48.617Z,0.00
2018-10-03T01:02:48.613Z,0.00
2018-10-03T01:03:48.608Z,0.00
2018-10-03T01:04:48.560Z,0.00
2018-10-03T01:05:48.619Z,0.00
2018-10-03T01:06:48.586Z,0.00
2018-10-03T01:07:48.636Z,0.00
2018-10-03T01:08:48.570Z,0.00
2018-10-03T01:09:48.562Z,0.00
2018-10-03T01:10:48.546Z,0.00
2018-10-03T01:11:48.543Z,0.00
2018-10-03T01:12:48.532Z,0.00
2018-10-03T01:13:48.576Z,0.00
2018-10-03T01:14:48.526Z,0.00
2018-10-03T01:15:48.517Z,0.00
2018-10-03T01:16:48.495Z,0.00
2018-10-03T01:17:48.536Z,0.00
2018-10-03T01:18:48.483Z,0.00
2018-10-03T01:19:48.502Z,0.00
2018-10-03T01:20:48.504Z,0.00
2018-10-03T01:21:48.493Z,0.00
2018-10-03T01:22:48.488Z,0.00
2018-10-03T01:23:48.461Z,0.00
2018-10-03T01:24:48.465Z,0.00
2018-10-03T01:25:48.477Z,0.00
2018-10-03T01:26:48.458Z,0.00
2018-10-03T01:27:48.456Z,0.00
2018-10-03T01:28:48.490Z,0.00
2018-10-03T01:29:48.437Z,0.00
2018-10-03T01:30:48.447Z,0.00
2018-10-03T01:31:48.417Z,0.00
2018-10-03T01:32:48.469Z,0.00
2018-10-03T01:33:48.450Z,0.00
2018-10-03T01:34:48.397Z,0.00
2018-10-03T01:35:48.387Z,0.00
2018-10-03T01:36:48.393Z,0.00
2018-10-03T01:37:48.385Z,0.00
2018-10-03T01:38:48.390Z,0.00
2018-10-03T01:39:48.372Z,0.00
2018-10-03T01:40:48.390Z,0.00
2018-10-03T01:41:48.383Z,0.00
2018-10-03T01:42:48.380Z,0.00
2018-10-03T01:43:48.365Z,0.00
2018-10-03T01:44:48.393Z,0.00
2018-10-03T01:45:48.326Z,0.00
2018-10-03T01:46:48.330Z,0.00
2018-10-03T01:47:48.322Z,0.00
2018-10-03T01:48:48.337Z,0.00
2018-10-03T01:49:48.365Z,0.00
2018-10-03T01:50:48.312Z,0.00
2018-10-03T01:51:48.293Z,0.00
2018-10-03T01:52:48.288Z,0.00
2018-10-03T01:53:48.296Z,0.00
2018-10-03T01:54:48.515Z,0.00
2018-10-03T01:55:48.320Z,0.00
2018-10-03T01:56:48.269Z,0.00
2018-10-03T01:57:48.277Z,0.00
2018-10-03T01:58:48.280Z,0.00
2018-10-03T01:59:48.261Z,0.00
2018-10-03T02:00:48.282Z,0.00
2018-10-03T02:01:48.243Z,0.00
2018-10-03T02:02:48.249Z,0.00
2018-10-03T02:03:48.230Z,0.00
2018-10-03T02:04:48.398Z,0.00
2018-10-03T02:05:48.297Z,0.00
2018-10-03T02:06:48.222Z,0.00
2018-10-03T02:07:48.207Z,0.00
2018-10-03T02:08:48.221Z,0.00
2018-10-03T02:09:48.271Z,0.00
2018-10-03T02:10:48.191Z,0.00
2018-10-03T02:11:48.191Z,0.00
2018-10-03T02:12:48.179Z,0.00
2018-10-03T02:13:48.200Z,0.00
2018-10-03T02:14:48.241Z,0.00
2018-10-03T02:15:48.149Z,0.00
2018-10-03T02:16:48.145Z,0.00
2018-10-03T02:17:48.144Z,0.00
2018-10-03T02:18:48.152Z,0.00
2018-10-03T02:19:48.331Z,0.00
2018-10-03T02:20:48.149Z,0.00
2018-10-03T02:21:48.129Z,0.00
2018-10-03T02:22:48.129Z,0.00
2018-10-03T02:23:48.123Z,0.00
2018-10-03T02:24:48.157Z,0.00
2018-10-03T02:25:48.361Z,0.00
2018-10-03T02:26:48.106Z,0.00
2018-10-03T02:27:48.117Z,0.00
2018-10-03T02:28:48.062Z,0.00
2018-10-03T02:29:48.092Z,0.00
2018-10-03T02:30:48.162Z,0.00
2018-10-03T02:31:48.058Z,0.00
2018-10-03T02:32:48.048Z,0.00
2018-10-03T02:33:48.127Z,0.00
2018-10-03T02:34:48.074Z,0.00
2018-10-03T02:35:48.034Z,0.00
2018-10-03T02:36:48.266Z,0.00
2018-10-03T02:37:48.029Z,0.00
2018-10-03T02:38:48.009Z,0.00
2018-10-03T02:39:48.014Z,0.00
2018-10-03T02:40:48.002Z,0.00
2018-10-03T02:41:48.033Z,0.00
2018-10-03T02:42:47.995Z,0.00
2018-10-03T02:43:47.997Z,0.00
2018-10-03T02:44:48.014Z,0.00
2018-10-03T02:45:48.003Z,0.00
2018-10-03T02:46:47.982Z,0.00
2018-10-03T02:47:47.947Z,0.00
2018-10-03T02:48:48.005Z,0.00
2018-10-03T02:49:47.944Z,0.00
2018-10-03T02:50:47.943Z,0.00
2018-10-03T02:51:47.959Z,0.00
2018-10-03T02:52:47.919Z,0.00
2018-10-03T02:53:47.929Z,0.00
2018-10-03T02:54:47.913Z,0.00
2018-10-03T02:55:47.941Z,0.00
2018-10-03T02:56:47.923Z,0.00
2018-10-03T02:57:47.920Z,0.00
2018-10-03T02:58:47.908Z,0.00
2018-10-03T02:59:47.897Z,0.00
2018-10-03T03:00:47.882Z,0.00
2018-10-03T03:01:47.993Z,0.00
2018-10-03T03:02:47.874Z,0.00
2018-10-03T03:03:47.858Z,0.00
2018-10-03T03:04:47.868Z,0.00
2018-10-03T03:05:47.897Z,0.00
2018-10-03T03:06:47.852Z,0.00
2018-10-03T03:07:47.846Z,0.00
2018-10-03T03:08:47.965Z,0.00
2018-10-03T03:09:47.822Z,0.00
2018-10-03T03:10:47.834Z,0.00
2018-10-03T03:11:47.819Z,0.00
2018-10-03T03:12:47.798Z,0.00
2018-10-03T03:13:47.801Z,0.00
2018-10-03T03:14:47.908Z,0.00
2018-10-03T03:15:47.823Z,0.00
2018-10-03T03:16:47.817Z,0.00
2018-10-03T03:17:47.785Z,0.00
2018-10-03T03:18:47.760Z,0.00
2018-10-03T03:19:47.760Z,0.00
2018-10-03T03:20:47.773Z,0.00
2018-10-03T03:21:47.750Z,0.00
2018-10-03T03:22:47.743Z,0.00
2018-10-03T03:23:47.749Z,0.00
2018-10-03T03:24:47.715Z,0.00
2018-10-03T03:25:47.739Z,0.00
2018-10-03T03:26:47.751Z,0.00
2018-10-03T03:27:47.746Z,0.00
2018-10-03T03:28:47.696Z,0.00
2018-10-03T03:29:47.700Z,0.00
2018-10-03T03:30:47.823Z,0.00
2018-10-03T03:31:47.698Z,0.00
2018-10-03T03:32:47.731Z,0.00
2018-10-03T03:33:47.677Z,0.00
2018-10-03T03:34:47.662Z,0.00
2018-10-03T03:35:47.669Z,0.00
2018-10-03T03:36:47.770Z,0.00
2018-10-03T03:37:47.658Z,0.00
2018-10-03T03:38:47.651Z,0.00
2018-10-03T03:39:47.643Z,0.00
2018-10-03T03:40:47.620Z,0.00
2018-10-03T03:41:47.620Z,0.00
2018-10-03T03:42:47.734Z,0.00
2018-10-03T03:43:47.601Z,0.00
2018-10-03T03:44:47.624Z,0.00
2018-10-03T03:45:47.596Z,0.00
2018-10-03T03:46:47.659Z,0.00
2018-10-03T03:47:47.576Z,0.00
2018-10-03T03:48:47.589Z,0.00
2018-10-03T03:49:47.584Z,0.00
2018-10-03T03:50:47.555Z,0.00
2018-10-03T03:51:47.569Z,0.00
2018-10-03T03:52:47.560Z,0.00
2018-10-03T03:53:47.585Z,0.00
2018-10-03T03:54:47.540Z,0.00
2018-10-03T03:55:47.540Z,0.00
2018-10-03T03:56:47.556Z,0.00
2018-10-03T03:57:47.535Z,0.00
2018-10-03T03:58:47.520Z,0.00
2018-10-03T03:59:47.512Z,0.00
2018-10-03T04:00:47.507Z,0.00
2018-10-03T04:01:47.512Z,0.00
2018-10-03T04:02:47.512Z,0.00
2018-10-03T04:03:47.484Z,0.00
2018-10-03T04:04:47.483Z,0.00
2018-10-03T04:05:47.483Z,0.00
2018-10-03T04:06:47.463Z,0.00
2018-10-03T04:07:47.458Z,0.00
2018-10-03T04:08:47.688Z,0.00
2018-10-03T04:09:47.444Z,0.00
2018-10-03T04:10:47.474Z,0.00
2018-10-03T04:11:47.479Z,0.00
2018-10-03T04:12:47.421Z,0.00
2018-10-03T04:13:47.473Z,0.00
2018-10-03T04:14:47.416Z,0.00
2018-10-03T04:15:47.401Z,0.00
2018-10-03T04:16:47.400Z,0.00
2018-10-03T04:17:47.404Z,0.00
2018-10-03T04:18:47.407Z,0.00
2018-10-03T04:19:47.384Z,0.00
2018-10-03T04:20:47.393Z,0.00
2018-10-03T04:21:47.358Z,0.00
2018-10-03T04:22:47.361Z,0.00
2018-10-03T04:23:47.371Z,0.00
2018-10-03T04:24:47.401Z,0.00
2018-10-03T04:25:47.603Z,0.00
2018-10-03T04:26:47.342Z,0.00
2018-10-03T04:27:47.329Z,0.00
2018-10-03T04:28:47.312Z,0.00
2018-10-03T04:29:47.306Z,0.00
2018-10-03T04:30:47.456Z,0.00
2018-10-03T04:31:47.289Z,0.00
2018-10-03T04:32:47.292Z,0.00
2018-10-03T04:33:47.288Z,0.00
2018-10-03T04:34:47.268Z,0.00
2018-10-03T04:35:47.455Z,0.00
2018-10-03T04:36:47.377Z,0.00
2018-10-03T04:37:47.270Z,0.00
2018-10-03T04:38:47.251Z,0.00
2018-10-03T04:39:47.256Z,0.00
2018-10-03T04:40:47.230Z,0.00
2018-10-03T04:41:47.224Z,0.00
2018-10-03T04:42:47.228Z,0.00
2018-10-03T04:43:47.229Z,0.00
2018-10-03T04:44:47.200Z,0.00
2018-10-03T04:45:47.197Z,0.00
2018-10-03T04:46:47.211Z,0.00
2018-10-03T04:47:47.196Z,0.00
2018-10-03T04:48:47.223Z,0.00
2018-10-03T04:49:47.182Z,0.00
2018-10-03T04:50:47.178Z,0.00
2018-10-03T04:51:47.170Z,0.00
2018-10-03T04:52:47.210Z,0.00
2018-10-03T04:53:47.177Z,0.00
2018-10-03T04:54:47.154Z,0.00
2018-10-03T04:55:47.144Z,0.00
2018-10-03T04:56:47.134Z,0.00
2018-10-03T04:57:47.145Z,0.00
2018-10-03T04:58:47.124Z,0.00
2018-10-03T04:59:47.130Z,0.00
2018-10-03T05:00:47.158Z,0.00
2018-10-03T05:01:47.100Z,0.00
2018-10-03T05:02:47.087Z,0.00
2018-10-03T05:03:47.103Z,0.00
2018-10-03T05:04:47.097Z,0.00
2018-10-03T05:05:47.062Z,0.00
2018-10-03T05:06:47.073Z,0.00
2018-10-03T05:07:47.060Z,0.00
2018-10-03T05:08:47.045Z,0.00
2018-10-03T05:09:47.052Z,0.00
2018-10-03T05:10:47.033Z,0.00
2018-10-03T05:11:47.076Z,0.00
2018-10-03T05:12:47.033Z,0.00
2018-10-03T05:13:47.028Z,0.00
2018-10-03T05:14:47.032Z,0.00
2018-10-03T05:15:47.026Z,0.00
2018-10-03T05:16:47.011Z,0.00
2018-10-03T05:17:47.016Z,0.00
2018-10-03T05:18:47.102Z,0.00
2018-10-03T05:19:47.000Z,0.00
2018-10-03T05:20:46.989Z,0.00
2018-10-03T05:21:46.984Z,0.00
2018-10-03T05:22:46.985Z,0.00
2018-10-03T05:23:46.969Z,0.00
2018-10-03T05:24:47.116Z,0.00
2018-10-03T05:25:46.929Z,0.00
2018-10-03T05:26:46.958Z,0.00
2018-10-03T05:27:46.933Z,0.00
2018-10-03T05:28:46.916Z,0.00
2018-10-03T05:29:46.953Z,0.00
2018-10-03T05:30:46.899Z,0.00
2018-10-03T05:31:46.953Z,0.00
2018-10-03T05:32:46.924Z,0.00
2018-10-03T05:33:46.918Z,0.00
2018-10-03T05:34:46.863Z,0.00
2018-10-03T05:35:46.882Z,0.00
2018-10-03T05:36:46.875Z,0.00
2018-10-03T05:37:46.841Z,0.00
2018-10-03T05:38:46.836Z,0.00
2018-10-03T05:39:46.926Z,0.00
2018-10-03T05:40:47.124Z,0.00
2018-10-03T05:41:46.818Z,0.00
2018-10-03T05:42:46.872Z,0.00
2018-10-03T05:43:46.818Z,0.00
2018-10-03T05:44:46.807Z,0.00
2018-10-03T05:45:46.826Z,0.00
2018-10-03T05:46:46.799Z,0.00
2018-10-03T05:47:46.786Z,0.00
2018-10-03T05:48:46.822Z,0.00
2018-10-03T05:49:46.796Z,0.00
2018-10-03T05:50:46.778Z,0.00
2018-10-03T05:51:46.766Z,0.00
2018-10-03T05:52:46.769Z,0.00
2018-10-03T05:53:46.746Z,0.00
2018-10-03T05:54:46.864Z,0.00
2018-10-03T05:55:46.716Z,0.00
2018-10-03T05:56:46.724Z,0.00
2018-10-03T05:57:46.725Z,0.00
2018-10-03T05:58:46.727Z,0.00
2018-10-03T05:59:46.711Z,0.00
2018-10-03T06:00:46.720Z,0.00
2018-10-03T06:01:46.732Z,0.00
2018-10-03T06:02:46.743Z,0.00
2018-10-03T06:03:46.687Z,0.00
2018-10-03T06:04:46.661Z,0.00
2018-10-03T06:05:46.671Z,0.00
2018-10-03T06:06:46.663Z,0.00
2018-10-03T06:07:46.648Z,0.00
2018-10-03T06:08:46.640Z,0.00
2018-10-03T06:09:46.639Z,0.00
2018-10-03T06:10:46.627Z,0.00
2018-10-03T06:11:46.633Z,0.00
2018-10-03T06:12:46.631Z,0.00
2018-10-03T06:13:46.601Z,0.00
2018-10-03T06:14:46.606Z,0.00
2018-10-03T06:15:46.620Z,0.00
2018-10-03T06:16:46.585Z,0.00
2018-10-03T06:17:46.893Z,0.00
2018-10-03T06:18:46.651Z,0.00
2018-10-03T06:19:46.595Z,0.00
2018-10-03T06:20:46.565Z,0.00
2018-10-03T06:21:46.559Z,0.00
2018-10-03T06:22:46.568Z,0.00
2018-10-03T06:23:46.550Z,0.00
2018-10-03T06:24:46.540Z,0.00
2018-10-03T06:25:46.526Z,0.00
2018-10-03T06:26:46.537Z,0.00
2018-10-03T06:27:46.548Z,0.00
2018-10-03T06:28:46.489Z,0.00
2018-10-03T06:29:46.514Z,0.00
2018-10-03T06:30:46.543Z,0.00
2018-10-03T06:31:46.527Z,0.00
2018-10-03T06:32:46.490Z,0.00
2018-10-03T06:33:46.564Z,0.00
2018-10-03T06:34:46.471Z,0.00
2018-10-03T06:35:46.453Z,0.00
2018-10-03T06:36:46.469Z,0.00
2018-10-03T06:37:46.434Z,0.00
2018-10-03T06:38:46.519Z,0.00
2018-10-03T06:39:46.464Z,0.00
2018-10-03T06:40:46.418Z,0.00
2018-10-03T06:41:46.429Z,0.00
2018-10-03T06:42:46.413Z,0.00
2018-10-03T06:43:46.424Z,0.00
2018-10-03T06:44:46.744Z,0.00
2018-10-03T06:45:46.434Z,0.00
2018-10-03T06:46:46.385Z,0.00
2018-10-03T06:47:46.387Z,0.00
2018-10-03T06:48:46.416Z,0.00
2018-10-03T06:49:46.362Z,0.00
2018-10-03T06:50:46.450Z,0.00
2018-10-03T06:51:46.344Z,0.00
2018-10-03T06:52:46.389Z,0.00
2018-10-03T06:53:46.369Z,0.00
2018-10-03T06:54:46.329Z,0.00
2018-10-03T06:55:46.622Z,0.00
2018-10-03T06:56:46.302Z,0.00
2018-10-03T06:57:46.298Z,0.00
2018-10-03T06:58:46.336Z,0.00
2018-10-03T06:59:46.294Z,0.00
2018-10-03T07:00:46.298Z,0.00
2018-10-03T07:01:46.273Z,0.00
2018-10-03T07:02:46.268Z,0.00
2018-10-03T07:03:46.251Z,0.00
2018-10-03T07:04:46.284Z,0.00
2018-10-03T07:05:46.292Z,0.00
2018-10-03T07:06:46.250Z,0.00
2018-10-03T07:07:46.233Z,0.00
2018-10-03T07:08:46.218Z,0.00
2018-10-03T07:09:46.216Z,0.00
2018-10-03T07:10:46.210Z,0.00
2018-10-03T07:11:46.221Z,0.00
2018-10-03T07:12:46.210Z,0.00
2018-10-03T07:13:46.198Z,0.00
2018-10-03T07:14:46.194Z,0.00
2018-10-03T07:15:46.172Z,0.00
2018-10-03T07:16:46.167Z,0.00
2018-10-03T07:17:46.148Z,0.00
2018-10-03T07:18:46.161Z,0.00
2018-10-03T07:19:46.135Z,0.00
2018-10-03T07:20:46.139Z,0.00
2018-10-03T07:21:46.130Z,0.00
2018-10-03T07:22:46.120Z,0.00
2018-10-03T07:23:46.152Z,0.00
2018-10-03T07:24:46.107Z,0.00
2018-10-03T07:25:46.122Z,0.00
2018-10-03T07:26:46.095Z,0.00
2018-10-03T07:27:46.111Z,0.00
2018-10-03T07:28:46.126Z,0.00
2018-10-03T07:29:46.087Z,0.00
2018-10-03T07:30:46.080Z,0.00
2018-10-03T07:31:46.070Z,0.00
2018-10-03T07:32:46.258Z,0.00
2018-10-03T07:33:46.061Z,0.00
2018-10-03T07:34:46.069Z,0.00
2018-10-03T07:35:46.049Z,0.00
2018-10-03T07:36:46.050Z,0.00
2018-10-03T07:37:46.051Z,0.00
2018-10-03T07:38:46.120Z,0.00
2018-10-03T07:39:46.000Z,0.00
2018-10-03T07:40:46.003Z,0.00
2018-10-03T07:41:45.997Z,0.00
2018-10-03T07:42:46.031Z,0.00
2018-10-03T07:43:46.087Z,0.00
2018-10-03T07:44:45.954Z,0.00
2018-10-03T07:45:45.981Z,0.00
2018-10-03T07:46:45.973Z,0.00
2018-10-03T07:47:45.954Z,0.00
2018-10-03T07:48:46.239Z,0.00
2018-10-03T07:49:45.935Z,0.00
2018-10-03T07:50:45.949Z,0.00
2018-10-03T07:51:45.925Z,0.00
2018-10-03T07:52:45.909Z,0.00
2018-10-03T07:53:45.917Z,0.00
2018-10-03T07:54:45.919Z,0.00
2018-10-03T07:55:45.904Z,0.00
2018-10-03T07:56:45.904Z,0.00
2018-10-03T07:57:45.883Z,0.00
2018-10-03T07:58:45.866Z,0.00
2018-10-03T07:59:45.875Z,0.00
2018-10-03T08:00:45.864Z,0.00
2018-10-03T08:01:45.845Z,0.00
2018-10-03T08:02:45.858Z,0.00
2018-10-03T08:03:45.836Z,0.00
2018-10-03T08:04:45.860Z,0.00
2018-10-03T08:05:45.843Z,0.00
2018-10-03T08:06:45.835Z,0.00
2018-10-03T08:07:45.820Z,0.00
2018-10-03T08:08:45.814Z,0.00
2018-10-03T08:09:45.835Z,0.00
2018-10-03T08:10:45.798Z,0.00
2018-10-03T08:11:45.778Z,0.00
2018-10-03T08:12:45.762Z,0.00
2018-10-03T08:13:45.767Z,0.00
2018-10-03T08:14:45.872Z,0.00
2018-10-03T08:15:45.762Z,0.00
2018-10-03T08:16:45.746Z,0.00
2018-10-03T08:17:45.735Z,0.00
2018-10-03T08:18:45.742Z,0.00
2018-10-03T08:19:45.718Z,0.00
2018-10-03T08:20:45.737Z,0.00
2018-10-03T08:21:45.755Z,0.00
2018-10-03T08:22:45.704Z,0.00
2018-10-03T08:23:45.719Z,0.00
2018-10-03T08:24:45.695Z,0.00
2018-10-03T08:25:45.702Z,0.00
2018-10-03T08:26:45.936Z,0.00
2018-10-03T08:27:45.712Z,0.00
2018-10-03T08:28:45.668Z,0.00
2018-10-03T08:29:45.651Z,0.00
2018-10-03T08:30:45.647Z,0.00
2018-10-03T08:31:45.639Z,0.00
2018-10-03T08:32:45.761Z,0.00
2018-10-03T08:33:45.686Z,0.00
2018-10-03T08:34:45.618Z,0.00
2018-10-03T08:35:45.627Z,0.00
2018-10-03T08:36:45.594Z,0.00
2018-10-03T08:37:45.611Z,0.00
2018-10-03T08:38:45.637Z,0.00
2018-10-03T08:39:45.600Z,0.00
2018-10-03T08:40:45.589Z,0.00
2018-10-03T08:41:45.593Z,0.00
2018-10-03T08:42:45.565Z,0.00
2018-10-03T08:43:45.579Z,0.00
2018-10-03T08:44:45.597Z,0.00
2018-10-03T08:45:45.547Z,0.00
2018-10-03T08:46:45.595Z,0.00
2018-10-03T08:47:45.547Z,0.00
2018-10-03T08:48:45.515Z,0.00
2018-10-03T08:49:45.517Z,0.00
2018-10-03T08:50:45.494Z,0.00
2018-10-03T08:51:45.522Z,0.00
2018-10-03T08:52:45.482Z,0.00
2018-10-03T08:53:45.589Z,0.00
2018-10-03T08:54:45.525Z,0.00
2018-10-03T08:55:45.464Z,0.00
2018-10-03T08:56:45.475Z,0.00
2018-10-03T08:57:45.461Z,0.00
2018-10-03T08:58:45.472Z,0.00
2018-10-03T08:59:45.455Z,0.00
2018-10-03T09:00:45.444Z,5.63
2018-10-03T09:01:45.438Z,5.63
2018-10-03T09:02:45.405Z,5.63
2018-10-03T09:03:45.414Z,5.63
2018-10-03T09:04:45.403Z,5.63
2018-10-03T09:05:45.387Z,5.63
2018-10-03T09:06:45.389Z,5.63
2018-10-03T09:07:45.402Z,5.63
2018-10-03T09:08:45.389Z,11.25
2018-10-03T09:09:45.371Z,11.25
2018-10-03T09:10:45.351Z,11.25
2018-10-03T09:11:45.517Z,11.25
2018-10-03T09:12:45.367Z,11.25
2018-10-03T09:13:45.340Z,11.25
2018-10-03T09:14:45.353Z,11.25
2018-10-03T09:15:45.321Z,11.25
2018-10-03T09:16:45.305Z,11.25
2018-10-03T09:17:45.352Z,11.25
2018-10-03T09:18:45.322Z,11.25
2018-10-03T09:19:45.339Z,11.25
2018-10-03T09:20:45.275Z,11.25
2018-10-03T09:21:45.360Z,11.25
2018-10-03T09:22:45.275Z,16.88
2018-10-03T09:23:45.263Z,16.88
2018-10-03T09:24:45.370Z,16.88
2018-10-03T09:25:45.251Z,16.88
2018-10-03T09:26:45.249Z,16.88
2018-10-03T09:27:45.246Z,16.88
2018-10-03T09:28:45.243Z,11.25
2018-10-03T09:29:45.333Z,11.25
2018-10-03T09:30:45.217Z,11.25
2018-10-03T09:31:45.262Z,11.25
2018-10-03T09:32:45.209Z,11.25
2018-10-03T09:33:45.197Z,11.25
2018-10-03T09:34:45.262Z,11.25
2018-10-03T09:35:45.175Z,11.25
2018-10-03T09:36:45.234Z,11.25
2018-10-03T09:37:45.167Z,11.25
2018-10-03T09:38:45.156Z,16.88
2018-10-03T09:39:45.167Z,16.88
2018-10-03T09:40:45.157Z,16.88
2018-10-03T09:41:45.146Z,16.88
2018-10-03T09:42:45.147Z,16.88
2018-10-03T09:43:45.167Z,16.88
2018-10-03T09:44:45.155Z,16.88
2018-10-03T09:45:45.115Z,16.88
2018-10-03T09:46:45.117Z,16.88
2018-10-03T09:47:45.164Z,16.88
2018-10-03T09:48:45.104Z,16.88
2018-10-03T09:49:45.094Z,16.88
2018-10-03T09:50:45.116Z,16.88
2018-10-03T09:51:45.088Z,16.88
2018-10-03T09:52:45.060Z,16.88
2018-10-03T09:53:45.071Z,16.88
2018-10-03T09:54:45.073Z,16.88
2018-10-03T09:55:45.160Z,16.88
2018-10-03T09:56:45.042Z,16.88
2018-10-03T09:57:45.044Z,16.88
2018-10-03T09:58:45.031Z,16.88
2018-10-03T09:59:45.022Z,16.88
2018-10-03T10:00:45.036Z,16.88
2018-10-03T10:01:45.062Z,16.88
2018-10-03T10:02:45.016Z,16.88
2018-10-03T10:03:44.990Z,16.88
2018-10-03T10:04:44.981Z,16.88
2018-10-03T10:05:44.996Z,16.88
2018-10-03T10:06:44.978Z,16.88
2018-10-03T10:07:45.026Z,16.88
2018-10-03T10:08:44.978Z,22.50
2018-10-03T10:09:44.967Z,22.50
2018-10-03T10:10:44.963Z,22.50
2018-10-03T10:11:45.140Z,22.50
2018-10-03T10:12:44.950Z,22.50
2018-10-03T10:13:44.928Z,22.50
2018-10-03T10:14:44.934Z,22.50
2018-10-03T10:15:44.915Z,22.50
2018-10-03T10:16:45.025Z,22.50
2018-10-03T10:17:44.967Z,22.50
2018-10-03T10:18:44.902Z,22.50
2018-10-03T10:19:44.954Z,22.50
2018-10-03T10:20:44.941Z,22.50
2018-10-03T10:21:44.892Z,22.50
2018-10-03T10:22:44.928Z,22.50
2018-10-03T10:23:44.879Z,22.50
2018-10-03T10:24:44.883Z,22.50
2018-10-03T10:25:44.862Z,22.50
2018-10-03T10:26:44.859Z,16.88
2018-10-03T10:27:44.902Z,16.88
2018-10-03T10:28:44.852Z,22.50
2018-10-03T10:29:44.834Z,22.50
2018-10-03T10:30:44.890Z,22.50
2018-10-03T10:31:44.848Z,16.88
2018-10-03T10:32:44.965Z,22.50
2018-10-03T10:33:44.808Z,16.88
2018-10-03T10:34:44.841Z,16.88
2018-10-03T10:35:44.808Z,16.88
2018-10-03T10:36:44.804Z,22.50
2018-10-03T10:37:44.824Z,22.50
2018-10-03T10:38:44.834Z,22.50
2018-10-03T10:39:44.773Z,22.50
2018-10-03T10:40:44.961Z,22.50
2018-10-03T10:41:44.809Z,22.50
2018-10-03T10:42:44.762Z,22.50
2018-10-03T10:43:44.744Z,22.50
2018-10-03T10:44:44.752Z,22.50
2018-10-03T10:45:44.755Z,22.50
2018-10-03T10:46:44.777Z,22.50
2018-10-03T10:47:44.744Z,22.50
2018-10-03T10:48:44.732Z,22.50
2018-10-03T10:49:44.720Z,22.50
2018-10-03T10:50:44.723Z,22.50
2018-10-03T10:51:44.768Z,22.50
2018-10-03T10:52:44.706Z,22.50
2018-10-03T10:53:44.749Z,22.50
2018-10-03T10:54:44.685Z,22.50
2018-10-03T10:55:44.692Z,28.13
2018-10-03T10:56:44.732Z,28.13
2018-10-03T10:57:44.676Z,28.13
2018-10-03T10:58:44.675Z,28.13
2018-10-03T10:59:44.708Z,28.13
2018-10-03T11:00:44.702Z,28.13
2018-10-03T11:01:44.655Z,28.13
2018-10-03T11:02:44.654Z,28.13
2018-10-03T11:03:44.732Z,28.13
2018-10-03T11:04:44.627Z,28.13
2018-10-03T11:05:44.630Z,33.75
2018-10-03T11:06:44.626Z,33.75
2018-10-03T11:07:44.621Z,33.75
2018-10-03T11:08:44.714Z,33.75
2018-10-03T11:09:44.585Z,33.75
2018-10-03T11:10:44.596Z,33.75
2018-10-03T11:11:44.584Z,33.75
2018-10-03T11:12:44.572Z,33.75
2018-10-03T11:13:44.599Z,33.75
2018-10-03T11:14:44.562Z,28.13
2018-10-03T11:15:44.693Z,28.13
2018-10-03T11:16:44.590Z,28.13
2018-10-03T11:17:44.567Z,28.13
2018-10-03T11:18:44.551Z,22.50
2018-10-03T11:19:44.550Z,22.50
2018-10-03T11:20:44.548Z,22.50
2018-10-03T11:21:44.553Z,28.13
2018-10-03T11:22:44.533Z,28.13
2018-10-03T11:23:44.718Z,22.50
2018-10-03T11:24:44.630Z,22.50
2018-10-03T11:25:44.520Z,28.13
2018-10-03T11:26:44.552Z,28.13
2018-10-03T11:27:44.506Z,28.13
2018-10-03T11:28:44.500Z,28.13
2018-10-03T11:29:44.605Z,28.13
2018-10-03T11:30:44.489Z,28.13
2018-10-03T11:31:44.493Z,28.13
2018-10-03T11:32:44.498Z,33.75
2018-10-03T11:33:44.531Z,33.75
2018-10-03T11:34:44.590Z,33.75
2018-10-03T11:35:44.466Z,33.75
2018-10-03T11:36:44.468Z,33.75
2018-10-03T11:37:44.469Z,33.75
2018-10-03T11:38:44.459Z,33.75
2018-10-03T11:39:44.553Z,33.75
2018-10-03T11:40:44.438Z,33.75
2018-10-03T11:41:44.443Z,28.13
2018-10-03T11:42:44.434Z,33.75
2018-10-03T11:43:44.532Z,28.13
2018-10-03T11:44:44.529Z,28.13
2018-10-03T11:45:44.457Z,33.75
2018-10-03T11:46:44.398Z,33.75
2018-10-03T11:47:44.390Z,33.75
2018-10-03T11:48:44.414Z,33.75
2018-10-03T11:49:44.505Z,33.75
2018-10-03T11:50:44.479Z,28.13
2018-10-03T11:51:44.382Z,28.13
2018-10-03T11:52:44.431Z,28.13
2018-10-03T11:53:44.367Z,28.13
2018-10-03T11:54:44.357Z,28.13
2018-10-03T11:55:44.351Z,28.13
2018-10-03T11:56:44.358Z,28.13
2018-10-03T11:57:44.367Z,28.13
2018-10-03T11:58:44.395Z,33.75
2018-10-03T11:59:44.452Z,33.75
2018-10-03T12:00:44.371Z,33.75
2018-10-03T12:01:44.346Z,28.13
2018-10-03T12:02:44.416Z,28.13
2018-10-03T12:03:44.321Z,28.13
2018-10-03T12:04:44.430Z,28.13
2018-10-03T12:05:44.367Z,33.75
2018-10-03T12:06:44.358Z,33.75
2018-10-03T12:07:44.320Z,33.75
2018-10-03T12:08:44.300Z,39.38
2018-10-03T12:09:44.295Z,39.38
2018-10-03T12:10:44.407Z,45.00
2018-10-03T12:11:44.334Z,45.00
2018-10-03T12:12:44.301Z,45.00
2018-10-03T12:13:44.365Z,45.00
2018-10-03T12:14:44.296Z,50.63
2018-10-03T12:15:44.298Z,50.63
2018-10-03T12:16:44.292Z,50.63
2018-10-03T12:17:44.304Z,56.25
2018-10-03T12:18:44.338Z,56.25
2018-10-03T12:19:44.278Z,56.25
2018-10-03T12:20:44.281Z,56.25
2018-10-03T12:21:44.264Z,56.25
2018-10-03T12:22:44.322Z,56.25
2018-10-03T12:23:44.256Z,61.88
2018-10-03T12:24:44.263Z,61.88
2018-10-03T12:25:44.247Z,61.88
2018-10-03T12:26:46.355Z,61.88
2018-10-03T12:27:44.294Z,61.88
2018-10-03T12:28:44.258Z,67.50
2018-10-03T12:29:44.306Z,67.50
2018-10-03T12:30:44.254Z,73.13
2018-10-03T12:31:44.254Z,73.13
2018-10-03T12:32:44.258Z,73.13
2018-10-03T12:33:44.288Z,78.75
2018-10-03T12:34:44.238Z,78.75
2018-10-03T12:35:44.239Z,78.75
2018-10-03T12:36:44.238Z,84.38
2018-10-03T12:37:44.237Z,84.38
2018-10-03T12:38:44.244Z,84.38
2018-10-03T12:39:44.235Z,84.38
2018-10-03T12:40:44.308Z,90.00
2018-10-03T12:41:44.233Z,90.00
2018-10-03T12:42:44.231Z,90.00
2018-10-03T12:43:44.228Z,90.00
2018-10-03T12:44:44.223Z,90.00
2018-10-03T12:45:44.261Z,95.63
2018-10-03T12:46:44.292Z,95.63
2018-10-03T12:47:44.319Z,95.63
2018-10-03T12:48:44.224Z,95.63
2018-10-03T12:49:44.228Z,101.25
2018-10-03T12:50:44.221Z,101.25
2018-10-03T12:51:44.222Z,101.25
2018-10-03T12:52:44.387Z,106.88
2018-10-03T12:53:44.227Z,106.88
2018-10-03T12:54:44.341Z,106.88
2018-10-03T12:55:44.212Z,106.88
2018-10-03T12:56:44.208Z,106.88
2018-10-03T12:57:44.272Z,106.88
2018-10-03T12:58:44.229Z,106.88
2018-10-03T12:59:44.232Z,106.88
2018-10-03T13:00:44.221Z,106.88
2018-10-03T13:01:44.230Z,112.50
2018-10-03T13:02:44.219Z,112.50
2018-10-03T13:03:44.230Z,112.50
2018-10-03T13:04:44.271Z,112.50
2018-10-03T13:05:44.225Z,112.50
2018-10-03T13:06:44.268Z,112.50
2018-10-03T13:07:44.229Z,112.50
2018-10-03T13:08:44.315Z,112.50
2018-10-03T13:09:44.220Z,112.50